Time;durP1;ratioP1;P1;durP2;ratioP2;P2;SDS_P1;SDS_P2;PMS_P1;PMS_P2;Temp;Humidity;BMP_temperature;BMP_pressure;BME280_temperature;BME280_humidity;BME280_pressure;Samples;Min_cycle;Max_cycle;Signal;HPM_P1;HPM_P2
2023/01/04 00:02:22;;;;;;;7.10;5.00;;;10.20;60.80;;;;;;5056066;28;20479;-89
2023/01/04 00:04:49;;;;;;;5.50;4.30;;;10.30;60.50;;;;;;5070735;28;20842;-92
2023/01/04 00:07:16;;;;;;;8.83;6.07;;;10.50;59.90;;;;;;5054562;28;20553;-88
2023/01/04 00:09:43;;;;;;;6.30;5.03;;;10.40;59.80;;;;;;5054905;28;21060;-88
2023/01/04 00:12:10;;;;;;;10.63;5.17;;;10.40;59.90;;;;;;5070979;28;20455;-88
2023/01/04 00:14:39;;;;;;;6.57;4.60;;;10.40;59.70;;;;;;5054079;28;20466;-88
2023/01/04 00:17:06;;;;;;;6.67;4.60;;;10.50;59.30;;;;;;5073372;28;20891;-88
2023/01/04 00:19:33;;;;;;;8.43;4.63;;;10.40;59.70;;;;;;5054211;28;20501;-90
2023/01/04 00:22:00;;;;;;;6.93;4.87;;;10.50;59.30;;;;;;5053101;28;20467;-88
2023/01/04 00:24:28;;;;;;;11.30;6.50;;;10.60;58.80;;;;;;5057882;28;20977;-88
2023/01/04 00:26:55;;;;;;;14.60;7.00;;;10.60;58.90;;;;;;5072406;28;20524;-88
2023/01/04 00:29:24;;;;;;;13.17;7.50;;;10.50;59.30;;;;;;5050713;28;20458;-89
2023/01/04 00:31:53;;;;;;;11.87;6.07;;;10.50;58.70;;;;;;5063997;27;20448;-89
2023/01/04 00:34:20;;;;;;;7.77;4.97;;;10.60;58.80;;;;;;5056987;28;20448;-91
2023/01/04 00:36:47;;;;;;;9.40;6.60;;;10.80;58.20;;;;;;5056518;27;20506;-89
2023/01/04 00:39:16;;;;;;;7.23;5.03;;;10.90;57.40;;;;;;5056009;28;20459;-88
2023/01/04 00:41:44;;;;;;;5.93;4.73;;;10.80;57.40;;;;;;5058792;27;20459;-88
2023/01/04 00:44:12;;;;;;;8.43;5.20;;;10.70;57.80;;;;;;5054641;28;20448;-88
2023/01/04 00:46:40;;;;;;;11.30;5.70;;;10.50;58.00;;;;;;5056734;28;21006;-89
2023/01/04 00:49:11;;;;;;;7.43;5.30;;;10.60;58.00;;;;;;5055327;28;20483;-89
2023/01/04 00:51:39;;;;;;;9.50;4.70;;;10.60;58.10;;;;;;5066020;28;20808;-89
2023/01/04 00:54:08;;;;;;;7.73;4.67;;;10.70;57.50;;;;;;5071503;28;20451;-89
2023/01/04 00:56:35;;;;;;;8.70;4.40;;;10.90;57.20;;;;;;5072334;28;20445;-89
2023/01/04 00:59:04;;;;;;;8.53;5.43;;;11.00;56.90;;;;;;5057759;28;20431;-88
2023/01/04 01:01:33;;;;;;;8.90;5.47;;;11.00;56.20;;;;;;5058310;28;20499;-90
2023/01/04 01:04:03;;;;;;;12.80;6.60;;;11.00;55.90;;;;;;5070417;28;20459;-89
2023/01/04 01:06:33;;;;;;;9.07;5.77;;;10.80;55.90;;;;;;5055503;28;20450;-89
2023/01/04 01:09:01;;;;;;;7.47;4.97;;;10.80;56.20;;;;;;5055614;28;20453;-89
2023/01/04 01:11:29;;;;;;;8.27;5.50;;;10.60;56.90;;;;;;5073211;28;20466;-87
2023/01/04 01:13:57;;;;;;;9.57;5.93;;;10.50;57.10;;;;;;5052304;28;20451;-90
2023/01/04 01:16:25;;;;;;;6.33;5.23;;;10.50;57.60;;;;;;5061221;28;20457;-91
2023/01/04 01:18:53;;;;;;;9.37;5.93;;;10.60;57.20;;;;;;5068892;28;20451;-88
2023/01/04 01:21:22;;;;;;;9.13;6.13;;;10.70;57.20;;;;;;5085943;28;20972;-90
2023/01/04 01:23:51;;;;;;;14.10;7.27;;;10.60;57.10;;;;;;5069651;27;20461;-88
2023/01/04 01:26:20;;;;;;;12.47;7.37;;;10.30;58.50;;;;;;5053934;28;20479;-91
2023/01/04 01:28:48;;;;;;;10.70;7.27;;;10.20;59.00;;;;;;5054627;28;20521;-89
2023/01/04 01:31:17;;;;;;;22.30;8.20;;;9.70;62.30;;;;;;5070837;28;20448;-89
2023/01/04 01:33:47;;;;;;;13.50;7.40;;;9.70;62.50;;;;;;5057798;28;20454;-88
2023/01/04 01:36:16;;;;;;;13.93;8.07;;;9.80;62.40;;;;;;5053225;28;21163;-89
2023/01/04 01:38:44;;;;;;;17.20;9.20;;;10.00;60.90;;;;;;5102551;27;20470;-89
2023/01/04 01:41:18;;;;;;;14.70;8.13;;;10.10;60.70;;;;;;5066306;28;20465;-89
2023/01/04 01:43:51;;;;;;;16.50;8.70;;;10.10;60.50;;;;;;5070364;28;20434;-89
2023/01/04 01:46:22;;;;;;;17.70;11.10;;;10.00;61.00;;;;;;5052604;28;20443;-90
2023/01/04 01:48:51;;;;;;;16.60;10.37;;;10.10;61.40;;;;;;5087684;28;20474;-88
2023/01/04 01:51:19;;;;;;;14.30;9.70;;;10.20;60.90;;;;;;5051564;28;20450;-89
2023/01/04 01:53:52;;;;;;;16.40;10.70;;;10.40;59.90;;;;;;5071973;27;20947;-88
2023/01/04 01:56:21;;;;;;;13.60;9.63;;;10.30;60.30;;;;;;5064851;28;20482;-88
2023/01/04 01:58:52;;;;;;;14.13;9.53;;;10.20;60.60;;;;;;5053906;28;20505;-91
2023/01/04 02:01:20;;;;;;;16.10;9.70;;;10.00;61.30;;;;;;5059041;28;20491;-88
2023/01/04 02:03:47;;;;;;;14.60;9.03;;;9.70;63.30;;;;;;5054302;28;20800;-90
2023/01/04 02:06:20;;;;;;;17.30;9.37;;;9.70;63.70;;;;;;5051499;28;20443;-89
2023/01/04 02:08:49;;;;;;;20.00;11.03;;;9.70;63.90;;;;;;5053600;28;20474;-89
2023/01/04 02:11:16;;;;;;;17.77;10.13;;;9.60;63.90;;;;;;5054376;28;20439;-90
2023/01/04 02:16:42;;;;;;;16.97;10.33;;;9.70;64.00;;;;;;5071916;28;20443;-91
2023/01/04 02:19:31;;;;;;;13.60;9.23;;;9.70;64.10;;;;;;5053353;28;20441;-91
2023/01/04 02:22:15;;;;;;;26.73;11.37;;;9.80;64.40;;;;;;5052030;28;20841;-89
2023/01/04 02:24:59;;;;;;;14.97;9.97;;;9.90;63.60;;;;;;5052981;28;20474;-89
2023/01/04 02:27:42;;;;;;;19.57;10.37;;;10.00;62.00;;;;;;5056094;28;20466;-89
2023/01/04 02:30:43;;;;;;;18.00;11.73;;;10.20;61.20;;;;;;5042874;28;20446;-90
2023/01/04 02:33:23;;;;;;;15.77;9.90;;;10.10;60.90;;;;;;5053161;28;20482;-89
2023/01/04 02:35:58;;;;;;;16.83;9.80;;;10.20;61.00;;;;;;5044186;28;21866;-91
2023/01/04 02:38:30;;;;;;;21.03;10.23;;;10.10;61.20;;;;;;5052965;28;20834;-89
2023/01/04 02:41:05;;;;;;;16.53;10.53;;;10.20;60.90;;;;;;5083975;28;20499;-90
2023/01/04 02:46:29;;;;;;;19.90;11.27;;;10.20;60.60;;;;;;5072128;28;20442;-90
2023/01/04 02:51:45;;;;;;;16.97;11.27;;;10.20;60.90;;;;;;5074979;28;21034;-88
2023/01/04 02:54:15;;;;;;;18.70;11.00;;;10.20;60.90;;;;;;5057997;28;20458;-88
2023/01/04 02:57:00;;;;;;;18.20;10.57;;;10.10;61.80;;;;;;5073306;28;20474;-90
2023/01/04 02:59:45;;;;;;;22.43;11.93;;;10.10;61.30;;;;;;5057110;28;20528;-90
2023/01/04 03:08:15;;;;;;;16.83;9.77;;;9.90;63.50;;;;;;5072828;28;20458;-89
2023/01/04 03:10:49;;;;;;;12.83;9.00;;;9.80;63.90;;;;;;5057738;28;20462;-88
2023/01/04 03:13:18;;;;;;;13.73;9.47;;;9.80;63.50;;;;;;5054979;28;20435;-91
2023/01/04 03:15:52;;;;;;;14.50;9.40;;;9.90;63.60;;;;;;5062254;27;20522;-90
2023/01/04 03:18:23;;;;;;;13.80;9.00;;;9.90;63.20;;;;;;5088857;28;20838;-89
2023/01/04 03:20:53;;;;;;;19.47;10.37;;;9.90;63.20;;;;;;5072116;28;20447;-89
2023/01/04 03:37:42;;;;;;;11.70;7.80;;;9.70;63.70;;;;;;5073081;28;20514;-89
2023/01/04 03:48:54;;;;;;;8.20;6.60;;;9.50;64.10;;;;;;5074182;27;20507;-88
2023/01/04 03:51:24;;;;;;;8.43;6.03;;;9.30;65.20;;;;;;5073406;28;20441;-89
2023/01/04 03:53:58;;;;;;;8.70;6.70;;;9.50;64.90;;;;;;5064088;28;20452;-92
2023/01/04 03:56:28;;;;;;;11.43;6.70;;;9.40;65.20;;;;;;5065852;28;20439;-89
2023/01/04 03:58:56;;;;;;;11.80;7.37;;;9.30;65.70;;;;;;5070396;28;20994;-88
2023/01/04 04:01:24;;;;;;;10.07;7.20;;;9.40;65.50;;;;;;5073171;28;20948;-90
2023/01/04 04:09:23;;;;;;;11.80;8.40;;;9.40;65.40;;;;;;5055929;28;20509;-92
2023/01/04 04:11:50;;;;;;;9.77;7.27;;;9.70;64.80;;;;;;5070627;27;21013;-91
2023/01/04 04:14:17;;;;;;;8.70;7.23;;;9.70;64.30;;;;;;5059029;28;22341;-89
2023/01/04 04:16:44;;;;;;;12.37;7.80;;;9.40;65.20;;;;;;5049017;28;20507;-90
2023/01/04 04:19:11;;;;;;;9.67;6.90;;;9.50;65.30;;;;;;5089616;28;20438;-88
2023/01/04 04:21:38;;;;;;;9.63;6.87;;;9.50;65.20;;;;;;5064913;28;20468;-89
2023/01/04 04:24:06;;;;;;;11.47;6.40;;;9.70;64.90;;;;;;5072964;28;20474;-89
2023/01/04 04:26:34;;;;;;;10.03;7.43;;;9.70;64.40;;;;;;5054721;28;20457;-88
2023/01/04 04:29:01;;;;;;;9.30;7.20;;;9.80;64.20;;;;;;5073238;27;20459;-91
2023/01/04 04:31:28;;;;;;;12.60;7.33;;;9.80;64.10;;;;;;5055804;28;20446;-90
2023/01/04 04:33:55;;;;;;;10.37;6.50;;;9.80;64.10;;;;;;5061432;27;20956;-89
2023/01/04 04:36:22;;;;;;;11.97;7.30;;;9.30;65.20;;;;;;5069603;28;20447;-89
2023/01/04 04:38:49;;;;;;;10.43;8.10;;;9.60;65.30;;;;;;5060655;27;21058;-89
2023/01/04 04:44:02;;;;;;;7.40;6.60;;;9.70;63.60;;;;;;5061846;27;20465;-89
2023/01/04 04:46:29;;;;;;;10.10;7.63;;;9.80;63.40;;;;;;5054711;28;20457;-90
2023/01/04 04:48:56;;;;;;;14.53;8.13;;;9.80;63.30;;;;;;5070258;28;20886;-89
2023/01/04 04:51:23;;;;;;;10.13;8.00;;;9.80;62.80;;;;;;5073576;28;20458;-91
2023/01/04 04:53:50;;;;;;;9.37;7.00;;;9.60;63.80;;;;;;5053688;28;20485;-89
2023/01/04 04:56:17;;;;;;;12.80;8.00;;;9.60;63.50;;;;;;5046711;28;20451;-89
2023/01/04 04:58:44;;;;;;;10.60;7.80;;;9.70;62.90;;;;;;5052726;28;20469;-89
2023/01/04 05:01:13;;;;;;;9.90;8.20;;;9.60;63.10;;;;;;5054607;28;20480;-90
2023/01/04 05:03:40;;;;;;;9.97;6.37;;;9.80;63.00;;;;;;5070355;28;20558;-92
2023/01/04 05:06:07;;;;;;;11.70;7.17;;;10.00;61.20;;;;;;5054454;28;20947;-89
2023/01/04 05:08:34;;;;;;;8.27;6.20;;;10.10;61.20;;;;;;5051158;28;20467;-89
2023/01/04 05:11:06;;;;;;;10.70;7.30;;;10.20;60.20;;;;;;5069814;28;20443;-88
2023/01/04 05:13:33;;;;;;;10.63;7.53;;;9.90;62.60;;;;;;5045430;28;20448;-89
2023/01/04 05:16:02;;;;;;;9.70;6.07;;;9.80;62.60;;;;;;5052475;28;20530;-89
2023/01/04 05:18:31;;;;;;;10.50;6.80;;;9.80;62.20;;;;;;5056121;28;20979;-89
2023/01/04 05:20:58;;;;;;;10.10;6.97;;;9.90;62.70;;;;;;5053799;27;20448;-90
2023/01/04 05:23:25;;;;;;;11.83;7.37;;;9.90;62.30;;;;;;5063734;28;20455;-88
2023/01/04 05:25:55;;;;;;;8.20;6.17;;;10.20;60.50;;;;;;5086236;28;20855;-91
2023/01/04 05:28:22;;;;;;;8.47;6.03;;;10.00;60.80;;;;;;5069708;28;21047;-90
2023/01/04 05:30:52;;;;;;;8.50;6.07;;;10.30;60.50;;;;;;5051431;28;20936;-89
2023/01/04 05:33:21;;;;;;;12.10;9.37;;;10.20;59.50;;;;;;5103897;27;20447;-89
2023/01/04 05:35:50;;;;;;;25.40;15.93;;;10.20;60.00;;;;;;5052622;28;21136;-88
2023/01/04 05:38:18;;;;;;;8.70;6.63;;;10.50;59.90;;;;;;5062303;28;20953;-89
2023/01/04 05:40:45;;;;;;;11.63;9.80;;;10.20;60.00;;;;;;5069277;27;20439;-89
2023/01/04 05:43:13;;;;;;;7.50;6.47;;;10.00;60.60;;;;;;5049895;28;20458;-90
2023/01/04 05:45:40;;;;;;;10.77;6.83;;;9.90;62.30;;;;;;5063094;28;20462;-90
2023/01/04 05:48:07;;;;;;;7.53;5.93;;;9.90;62.60;;;;;;5041937;28;20471;-89
2023/01/04 05:50:34;;;;;;;14.23;5.93;;;9.80;62.20;;;;;;5073424;28;20455;-90
2023/01/04 05:53:06;;;;;;;7.60;5.80;;;9.60;63.40;;;;;;5077413;28;20439;-89
2023/01/04 05:55:33;;;;;;;9.73;6.53;;;9.50;63.50;;;;;;5049718;28;20442;-87
2023/01/04 05:58:00;;;;;;;7.70;5.90;;;9.60;63.80;;;;;;5067712;28;20462;-88
2023/01/04 06:00:27;;;;;;;7.73;6.50;;;9.40;64.50;;;;;;5064824;28;20466;-88
2023/01/04 06:02:55;;;;;;;12.63;7.80;;;9.30;65.00;;;;;;5063847;28;20859;-88
2023/01/04 06:05:23;;;;;;;7.00;5.97;;;9.50;65.10;;;;;;5047695;28;20509;-89
2023/01/04 06:07:50;;;;;;;9.70;6.07;;;9.40;64.40;;;;;;5081125;28;20686;-89
2023/01/04 06:10:19;;;;;;;8.30;6.40;;;9.60;64.50;;;;;;5080806;28;20458;-88
2023/01/04 06:12:47;;;;;;;8.17;6.70;;;9.40;65.00;;;;;;5047049;28;20446;-89
2023/01/04 06:15:15;;;;;;;12.57;7.30;;;9.40;65.10;;;;;;5044480;28;20449;-89
2023/01/04 06:17:42;;;;;;;7.73;5.87;;;9.50;65.10;;;;;;5055978;28;21258;-88
2023/01/04 06:20:10;;;;;;;8.87;6.30;;;9.60;65.00;;;;;;5082156;28;20462;-90
2023/01/04 06:22:39;;;;;;;6.70;5.43;;;9.70;64.60;;;;;;5041599;28;20542;-91
2023/01/04 06:25:07;;;;;;;10.20;6.97;;;9.60;64.10;;;;;;5072508;28;20439;-89
2023/01/04 06:27:35;;;;;;;9.83;6.63;;;9.70;64.40;;;;;;5043457;28;20863;-89
2023/01/04 06:30:02;;;;;;;8.03;5.87;;;9.80;64.50;;;;;;5062070;28;20454;-89
2023/01/04 06:32:29;;;;;;;8.83;6.57;;;9.60;64.40;;;;;;5046212;28;20452;-88
2023/01/04 06:34:56;;;;;;;11.70;6.13;;;9.40;65.10;;;;;;5047034;28;20457;-89
2023/01/04 06:37:23;;;;;;;8.70;7.00;;;9.40;65.10;;;;;;5063457;28;20493;-91
2023/01/04 06:39:50;;;;;;;13.40;6.73;;;9.70;65.30;;;;;;5062815;28;20438;-89
2023/01/04 06:45:03;;;;;;;12.63;6.73;;;9.80;64.60;;;;;;5064105;28;20963;-89
2023/01/04 06:47:30;;;;;;;10.53;6.07;;;9.60;65.00;;;;;;5047196;28;20558;-89
2023/01/04 06:49:57;;;;;;;8.07;5.80;;;9.90;64.50;;;;;;5052748;28;20826;-92
2023/01/04 06:52:24;;;;;;;13.30;5.87;;;10.10;62.70;;;;;;5055333;28;20447;-90
2023/01/04 06:54:51;;;;;;;11.57;6.70;;;10.00;62.60;;;;;;5049754;28;20436;-86
2023/01/04 06:57:18;;;;;;;7.87;5.23;;;10.00;62.90;;;;;;5064763;28;20480;-90
2023/01/04 06:59:45;;;;;;;9.80;7.13;;;10.10;62.60;;;;;;5073975;28;20792;-86
2023/01/04 07:02:15;;;;;;;13.70;6.83;;;10.20;62.60;;;;;;5051062;28;20441;-88
2023/01/04 07:04:42;;;;;;;15.73;6.10;;;10.40;61.50;;;;;;5049829;28;20665;-88
2023/01/04 07:07:10;;;;;;;7.47;5.97;;;10.30;61.40;;;;;;5068376;28;20475;-90
2023/01/04 07:09:37;;;;;;;11.00;7.57;;;10.00;62.80;;;;;;5068624;28;20443;-88
2023/01/04 07:12:04;;;;;;;7.20;5.20;;;10.20;63.10;;;;;;5066990;28;20454;-89
2023/01/04 07:14:31;;;;;;;7.97;5.50;;;10.20;62.50;;;;;;5048258;28;20990;-88
2023/01/04 07:16:58;;;;;;;7.90;5.23;;;10.00;62.80;;;;;;5053010;28;20470;-89
2023/01/04 07:19:27;;;;;;;8.00;5.57;;;10.20;62.50;;;;;;5066820;28;20960;-88
2023/01/04 07:21:54;;;;;;;7.33;6.33;;;9.90;64.60;;;;;;5043975;28;20468;-88
2023/01/04 07:24:21;;;;;;;7.60;4.83;;;9.90;64.80;;;;;;5054531;28;22532;-89
2023/01/04 07:26:48;;;;;;;8.50;5.43;;;10.10;62.50;;;;;;5054135;28;20982;-88
2023/01/04 07:29:15;;;;;;;8.73;5.47;;;9.80;64.20;;;;;;5052865;28;20529;-89
2023/01/04 07:31:44;;;;;;;10.13;6.87;;;9.60;64.80;;;;;;5071774;28;20462;-90
2023/01/04 07:34:11;;;;;;;8.20;5.20;;;9.40;65.50;;;;;;5071428;28;20435;-88
2023/01/04 07:36:40;;;;;;;11.70;7.47;;;9.30;65.50;;;;;;5057395;28;20443;-89
2023/01/04 07:39:09;;;;;;;6.47;4.67;;;9.40;65.60;;;;;;5074776;27;20449;-89
2023/01/04 07:41:37;;;;;;;8.17;6.83;;;9.70;65.30;;;;;;5068324;28;20890;-88
2023/01/04 07:44:04;;;;;;;7.97;5.80;;;9.70;63.90;;;;;;5090262;27;20465;-88
2023/01/04 07:46:32;;;;;;;10.00;5.63;;;9.70;64.20;;;;;;5054219;28;20534;-90
2023/01/04 07:48:59;;;;;;;5.73;4.47;;;9.70;64.60;;;;;;5074160;28;20491;-89
2023/01/04 07:51:26;;;;;;;6.10;5.10;;;9.80;64.20;;;;;;5076086;28;20936;-89
2023/01/04 07:53:54;;;;;;;6.43;4.73;;;10.00;62.60;;;;;;5058380;27;20964;-89
2023/01/04 07:56:21;;;;;;;11.20;6.00;;;9.80;63.10;;;;;;5045650;28;20447;-89
2023/01/04 07:58:48;;;;;;;11.37;4.60;;;9.80;63.70;;;;;;5064165;28;20466;-88
2023/01/04 08:01:17;;;;;;;4.80;4.30;;;9.60;64.20;;;;;;5057245;28;20530;-87
2023/01/04 08:03:45;;;;;;;4.77;4.00;;;9.70;64.40;;;;;;5052081;28;20515;-86
2023/01/04 08:06:14;;;;;;;6.87;4.40;;;9.70;63.80;;;;;;5058863;27;20462;-87
2023/01/04 08:08:42;;;;;;;5.57;4.20;;;9.80;63.50;;;;;;5075485;28;20462;-87
2023/01/04 08:11:12;;;;;;;6.77;3.83;;;9.80;62.90;;;;;;5065471;28;20457;-88
2023/01/04 08:13:39;;;;;;;5.40;4.07;;;9.90;62.80;;;;;;5066402;28;20485;-88
2023/01/04 08:16:07;;;;;;;4.37;3.37;;;9.90;63.10;;;;;;5072710;28;20439;-88
2023/01/04 08:18:34;;;;;;;7.03;4.27;;;10.00;61.10;;;;;;5064802;28;20996;-88
2023/01/04 08:21:02;;;;;;;4.40;3.27;;;10.00;61.40;;;;;;5073236;27;20535;-90
2023/01/04 08:23:29;;;;;;;8.70;4.43;;;10.00;60.70;;;;;;5054596;28;20466;-87
2023/01/04 08:26:02;;;;;;;4.07;3.53;;;10.10;61.90;;;;;;5056811;27;20439;-88
2023/01/04 08:28:30;;;;;;;6.73;3.97;;;9.90;62.80;;;;;;5065621;28;20480;-86
2023/01/04 08:30:57;;;;;;;7.17;3.70;;;10.00;61.80;;;;;;5079458;27;20452;-88
2023/01/04 08:33:25;;;;;;;5.40;3.43;;;9.90;62.60;;;;;;5054821;28;20475;-88
2023/01/04 08:35:52;;;;;;;3.93;3.40;;;10.00;62.10;;;;;;5072990;28;20461;-87
2023/01/04 08:38:19;;;;;;;4.17;3.23;;;10.00;61.90;;;;;;5073942;28;20999;-87
2023/01/04 08:40:46;;;;;;;7.50;4.00;;;10.10;61.90;;;;;;5071145;28;20435;-87
2023/01/04 08:43:13;;;;;;;9.27;5.40;;;10.10;62.10;;;;;;5069388;27;20460;-87
2023/01/04 08:45:42;;;;;;;4.07;3.10;;;10.20;61.40;;;;;;5074457;28;20447;-89
2023/01/04 08:48:09;;;;;;;12.87;5.80;;;10.20;61.50;;;;;;5104759;27;20474;-87
2023/01/04 08:50:36;;;;;;;6.93;4.90;;;10.40;61.00;;;;;;5052306;28;20442;-87
2023/01/04 08:53:03;;;;;;;4.43;2.90;;;10.40;60.90;;;;;;5069508;28;20445;-89
2023/01/04 08:55:30;;;;;;;8.07;4.60;;;10.50;61.30;;;;;;5070852;28;20463;-88
2023/01/04 08:57:59;;;;;;;9.67;6.10;;;10.50;61.10;;;;;;5071282;28;20474;-87
2023/01/04 09:00:26;;;;;;;5.20;4.57;;;10.70;60.50;;;;;;5070200;28;20459;-87
2023/01/04 09:02:54;;;;;;;3.07;2.67;;;10.60;60.80;;;;;;5048143;28;20447;-88
2023/01/04 09:05:22;;;;;;;4.80;3.27;;;10.50;61.20;;;;;;5068945;28;20470;-88
2023/01/04 09:07:48;;;;;;;3.60;2.80;;;10.60;61.00;;;;;;5074392;28;20462;-87
2023/01/04 09:10:16;;;;;;;4.90;2.90;;;10.50;60.90;;;;;;5070212;28;20974;-87
2023/01/04 09:12:44;;;;;;;3.00;2.40;;;10.60;60.30;;;;;;5058384;28;20479;-87
2023/01/04 09:15:11;;;;;;;2.70;2.43;;;10.30;61.40;;;;;;5087596;27;20502;-88
2023/01/04 09:17:38;;;;;;;3.90;2.50;;;10.30;62.30;;;;;;5058377;28;20483;-87
2023/01/04 09:20:07;;;;;;;3.30;2.10;;;10.40;61.70;;;;;;5064136;28;20435;-87
2023/01/04 09:22:34;;;;;;;5.43;2.50;;;10.50;61.50;;;;;;5052325;28;21133;-88
2023/01/04 09:25:01;;;;;;;7.77;2.83;;;10.50;61.10;;;;;;5087952;28;20467;-87
2023/01/04 09:27:31;;;;;;;3.60;2.87;;;10.70;60.60;;;;;;5053811;28;20487;-87
2023/01/04 09:29:58;;;;;;;3.93;3.13;;;10.80;60.80;;;;;;5056552;27;20499;-87
2023/01/04 09:32:25;;;;;;;8.00;2.83;;;11.00;60.30;;;;;;5069508;28;20469;-89
2023/01/04 09:34:52;;;;;;;4.77;2.80;;;10.70;60.40;;;;;;5088565;28;20435;-86
2023/01/04 09:37:20;;;;;;;5.53;3.23;;;10.40;61.20;;;;;;5070075;28;20479;-87
2023/01/04 09:39:47;;;;;;;4.17;2.40;;;10.50;61.90;;;;;;5073770;28;20459;-89
2023/01/04 09:42:20;;;;;;;3.83;3.10;;;10.60;61.60;;;;;;5067025;28;21246;-88
2023/01/04 09:44:50;;;;;;;3.00;2.20;;;10.40;62.20;;;;;;5058701;28;20965;-86
2023/01/04 09:47:22;;;;;;;4.80;3.30;;;10.70;62.00;;;;;;5046666;28;20511;-87
2023/01/04 09:49:52;;;;;;;3.33;2.73;;;10.80;60.90;;;;;;5071123;28;21088;-85
2023/01/04 09:52:25;;;;;;;3.87;2.50;;;11.00;60.70;;;;;;5057967;28;20542;-88
2023/01/04 09:54:57;;;;;;;5.30;3.50;;;11.00;59.80;;;;;;5053325;28;20948;-87
2023/01/04 09:57:28;;;;;;;3.60;2.20;;;11.00;60.20;;;;;;5085615;28;20463;-87
2023/01/04 10:00:01;;;;;;;5.07;3.30;;;11.00;60.60;;;;;;5084200;28;20437;-87
2023/01/04 10:02:38;;;;;;;7.00;2.57;;;11.20;59.80;;;;;;5052750;28;20439;-87
2023/01/04 10:05:06;;;;;;;2.50;2.30;;;10.90;60.50;;;;;;5061766;28;20473;-88
2023/01/04 10:07:35;;;;;;;3.40;2.37;;;10.80;61.60;;;;;;5074360;28;20478;-88
2023/01/04 10:10:04;;;;;;;3.20;2.30;;;10.50;62.50;;;;;;5088804;27;20955;-90
2023/01/04 10:12:45;;;;;;;2.40;2.20;;;10.50;62.60;;;;;;5067985;28;20434;-89
2023/01/04 10:15:24;;;;;;;2.30;2.10;;;10.60;62.70;;;;;;5067344;28;20454;-89
2023/01/04 10:18:15;;;;;;;4.07;3.67;;;10.80;61.70;;;;;;5053230;28;20478;-89
2023/01/04 10:21:06;;;;;;;3.37;1.83;;;11.10;61.10;;;;;;5071015;28;20458;-89
2023/01/04 10:23:50;;;;;;;3.70;2.30;;;11.00;61.90;;;;;;5053243;28;20493;-89
2023/01/04 10:26:24;;;;;;;2.57;2.10;;;10.70;62.30;;;;;;5102093;28;20484;-90
2023/01/04 10:29:09;;;;;;;4.00;2.00;;;10.90;62.40;;;;;;5082769;28;20471;-88
2023/01/04 10:31:42;;;;;;;1.90;1.80;;;10.90;61.70;;;;;;5070769;28;20438;-90
2023/01/04 10:34:21;;;;;;;3.10;1.97;;;11.20;61.70;;;;;;5049375;28;20469;-89
2023/01/04 10:36:49;;;;;;;7.47;1.70;;;11.10;61.40;;;;;;5086533;28;20855;-88
2023/01/04 10:39:19;;;;;;;2.70;1.83;;;11.00;61.30;;;;;;5073285;28;20442;-89
2023/01/04 10:41:57;;;;;;;2.47;2.17;;;11.10;61.70;;;;;;5059981;28;20440;-90
2023/01/04 10:44:33;;;;;;;1.90;1.77;;;11.00;62.40;;;;;;5049700;28;20468;-89
2023/01/04 10:47:08;;;;;;;3.90;1.90;;;11.00;62.80;;;;;;5085826;28;20868;-91
2023/01/04 10:49:42;;;;;;;2.13;1.93;;;11.10;61.70;;;;;;5054743;28;20435;-91
2023/01/04 10:52:16;;;;;;;2.80;1.30;;;11.10;61.70;;;;;;5068021;28;20454;-90
2023/01/04 10:54:49;;;;;;;3.07;1.70;;;10.90;62.50;;;;;;5059355;28;21092;-90
2023/01/04 10:57:23;;;;;;;3.20;2.10;;;10.90;63.00;;;;;;5068272;28;21004;-90
2023/01/04 10:59:55;;;;;;;2.70;1.90;;;11.10;62.30;;;;;;5053150;28;20451;-91
2023/01/04 11:02:27;;;;;;;3.00;2.10;;;11.20;62.10;;;;;;5048967;28;20461;-90
2023/01/04 11:05:02;;;;;;;2.13;1.50;;;11.40;61.10;;;;;;5085441;28;20469;-91
2023/01/04 11:07:37;;;;;;;2.00;1.70;;;11.50;60.80;;;;;;5054988;28;20535;-88
2023/01/04 11:10:12;;;;;;;2.40;1.50;;;11.30;61.80;;;;;;5093524;27;20445;-90
2023/01/04 11:12:39;;;;;;;1.90;1.47;;;11.30;62.50;;;;;;5073066;28;20430;-90
2023/01/04 11:15:07;;;;;;;1.53;1.37;;;11.30;62.20;;;;;;5078696;27;20445;-88
2023/01/04 11:17:35;;;;;;;4.60;1.57;;;11.40;62.90;;;;;;5062882;28;20495;-89
2023/01/04 11:20:02;;;;;;;3.23;2.00;;;11.50;62.40;;;;;;5075825;28;20454;-89
2023/01/04 11:22:34;;;;;;;1.30;1.20;;;11.70;62.10;;;;;;5090434;28;20527;-89
2023/01/04 11:25:04;;;;;;;1.60;1.33;;;11.70;62.30;;;;;;5075225;27;20463;-90
2023/01/04 11:27:41;;;;;;;4.73;2.60;;;11.90;62.00;;;;;;5062793;28;20817;-93
2023/01/04 11:30:16;;;;;;;8.30;2.13;;;11.90;61.70;;;;;;5058162;28;20458;-88
2023/01/04 11:32:51;;;;;;;2.03;1.83;;;12.00;62.30;;;;;;5063566;28;20940;-89
2023/01/04 11:35:40;;;;;;;1.70;1.57;;;12.10;61.80;;;;;;5073801;28;20462;-88
2023/01/04 11:38:12;;;;;;;2.40;2.20;;;12.00;62.60;;;;;;5069464;28;21553;-91
2023/01/04 11:40:40;;;;;;;4.23;3.40;;;11.80;63.40;;;;;;5055523;28;20529;-91
2023/01/04 11:43:19;;;;;;;2.93;2.60;;;11.90;63.20;;;;;;5051751;28;20482;-92
2023/01/04 11:45:58;;;;;;;3.27;2.87;;;12.10;62.80;;;;;;5077319;28;20459;-89
2023/01/04 11:48:50;;;;;;;5.03;2.60;;;12.30;62.10;;;;;;5084726;28;20481;-89
2023/01/04 11:51:38;;;;;;;11.17;3.47;;;12.10;62.70;;;;;;5037830;28;20450;-89
2023/01/04 11:54:20;;;;;;;2.77;2.50;;;12.20;62.70;;;;;;5036605;28;20458;-89
2023/01/04 11:57:02;;;;;;;2.70;2.43;;;12.30;62.30;;;;;;5056197;28;20443;-89
2023/01/04 11:59:30;;;;;;;5.03;2.97;;;11.90;63.40;;;;;;5088589;28;20822;-90
2023/01/04 12:02:21;;;;;;;6.43;4.87;;;12.10;63.20;;;;;;5063972;27;20534;-91
2023/01/04 12:04:48;;;;;;;8.03;5.73;;;12.30;63.00;;;;;;5058533;28;20489;-90
2023/01/04 12:07:27;;;;;;;2.70;2.50;;;12.40;62.40;;;;;;5055775;27;21161;-89
2023/01/04 12:09:54;;;;;;;28.17;12.07;;;12.30;62.60;;;;;;5054073;28;20948;-90
2023/01/04 12:12:22;;;;;;;11.47;6.27;;;12.10;63.10;;;;;;5068602;28;20443;-89
2023/01/04 12:14:51;;;;;;;11.10;5.40;;;12.00;63.40;;;;;;5072895;28;20442;-89
2023/01/04 12:17:23;;;;;;;7.13;3.37;;;12.20;63.40;;;;;;5058209;27;20466;-89
2023/01/04 12:19:53;;;;;;;4.73;2.47;;;12.30;63.00;;;;;;5061106;28;20874;-89
2023/01/04 12:22:24;;;;;;;2.43;1.97;;;12.30;62.80;;;;;;5057520;27;20450;-89
2023/01/04 12:24:53;;;;;;;4.70;2.93;;;12.40;62.70;;;;;;5056124;28;21081;-91
2023/01/04 12:27:20;;;;;;;3.83;2.00;;;12.70;62.20;;;;;;5053515;28;20844;-89
2023/01/04 12:29:57;;;;;;;3.30;2.27;;;12.70;61.70;;;;;;5061009;28;20543;-89
2023/01/04 12:32:46;;;;;;;2.97;2.20;;;12.50;62.20;;;;;;5068649;28;20533;-89
2023/01/04 12:36:02;;;;;;;2.33;1.67;;;12.60;62.90;;;;;;5075929;27;20451;-89
2023/01/04 12:39:07;;;;;;;3.10;2.20;;;12.50;62.50;;;;;;5055836;27;20466;-90
2023/01/04 12:42:08;;;;;;;3.93;2.07;;;12.60;62.70;;;;;;5072249;28;20490;-90
2023/01/04 12:45:21;;;;;;;2.67;2.47;;;12.60;62.30;;;;;;5084619;28;20531;-91
2023/01/04 12:51:22;;;;;;;2.33;2.10;;;12.50;62.80;;;;;;5076115;28;20436;-90
2023/01/04 12:53:51;;;;;;;3.50;2.43;;;12.40;63.20;;;;;;5061744;28;20455;-90
2023/01/04 12:56:18;;;;;;;2.20;2.03;;;12.50;63.20;;;;;;5071907;27;20461;-89
2023/01/04 12:59:11;;;;;;;7.30;4.10;;;12.60;62.70;;;;;;5053935;28;20463;-90
2023/01/04 13:01:38;;;;;;;2.43;2.23;;;12.40;63.20;;;;;;5063157;28;20971;-90
2023/01/04 13:04:30;;;;;;;2.30;2.10;;;12.50;63.30;;;;;;5072772;28;20825;-90
2023/01/04 13:07:08;;;;;;;10.90;4.00;;;12.40;63.40;;;;;;5073546;28;20482;-90
2023/01/04 13:09:42;;;;;;;7.80;6.00;;;12.70;62.90;;;;;;5060941;28;20539;-91
2023/01/04 13:12:18;;;;;;;4.43;4.00;;;12.50;63.60;;;;;;5059869;27;20449;-88
2023/01/04 13:14:50;;;;;;;5.60;4.70;;;12.50;63.40;;;;;;5070462;28;20541;-91
2023/01/04 13:17:22;;;;;;;2.57;2.37;;;12.70;62.80;;;;;;5069008;28;20842;-90
2023/01/04 13:19:50;;;;;;;64.63;29.93;;;12.80;63.00;;;;;;5048910;28;20451;-91
2023/01/04 13:22:25;;;;;;;74.47;34.80;;;13.00;62.30;;;;;;5047005;28;20855;-90
2023/01/04 13:24:55;;;;;;;7.83;6.13;;;12.80;62.20;;;;;;5055851;28;20832;-90
2023/01/04 13:27:23;;;;;;;4.07;3.67;;;12.60;63.40;;;;;;5073565;28;20514;-89
2023/01/04 13:29:52;;;;;;;7.67;5.87;;;12.50;63.50;;;;;;5067757;28;21100;-90
2023/01/04 13:32:24;;;;;;;2.73;1.60;;;12.70;63.20;;;;;;5046552;28;20551;-90
2023/01/04 13:34:58;;;;;;;2.13;1.93;;;12.70;63.00;;;;;;5083405;28;20529;-91
2023/01/04 13:37:37;;;;;;;2.43;1.47;;;12.70;63.40;;;;;;5051453;28;20471;-90
2023/01/04 13:40:22;;;;;;;3.30;1.57;;;12.50;63.90;;;;;;5084224;27;20507;-89
2023/01/04 13:42:54;;;;;;;3.93;3.23;;;12.60;63.70;;;;;;5066587;28;20501;-88
2023/01/04 13:45:48;;;;;;;2.73;1.73;;;12.80;64.10;;;;;;5047969;28;20889;-90
2023/01/04 13:48:19;;;;;;;3.33;2.70;;;13.00;63.50;;;;;;5050839;27;20528;-87
2023/01/04 13:51:00;;;;;;;3.20;2.20;;;13.00;63.70;;;;;;5042452;28;20462;-90
2023/01/04 13:53:28;;;;;;;2.67;1.50;;;12.80;64.90;;;;;;5049153;28;20457;-89
2023/01/04 13:55:57;;;;;;;1.93;1.60;;;13.00;65.20;;;;;;5083406;28;20546;-89
2023/01/04 13:58:26;;;;;;;4.73;1.40;;;12.70;65.90;;;;;;5070315;28;20495;-90